sensor_id;sensor_type;location;lat;lon;timestamp;temperature;humidity
29453;DHT22;16424;50.956;5.320;2024-02-26T00:01:29;7.40;99.90
29453;DHT22;16424;50.956;5.320;2024-02-26T00:03:56;7.30;99.90
29453;DHT22;16424;50.956;5.320;2024-02-26T00:06:25;7.30;99.90
29453;DHT22;16424;50.956;5.320;2024-02-26T00:08:50;7.40;99.90
29453;DHT22;16424;50.956;5.320;2024-02-26T00:11:16;7.40;99.90
29453;DHT22;16424;50.956;5.320;2024-02-26T00:13:41;7.40;99.90
29453;DHT22;16424;50.956;5.320;2024-02-26T00:16:07;7.30;99.90
29453;DHT22;16424;50.956;5.320;2024-02-26T00:18:33;7.30;99.90
29453;DHT22;16424;50.956;5.320;2024-02-26T00:20:59;7.40;99.90
29453;DHT22;16424;50.956;5.320;2024-02-26T00:23:26;7.50;99.90
29453;DHT22;16424;50.956;5.320;2024-02-26T00:25:54;7.40;99.90
29453;DHT22;16424;50.956;5.320;2024-02-26T00:28:21;7.30;99.90
29453;DHT22;16424;50.956;5.320;2024-02-26T00:30:47;7.30;99.90
29453;DHT22;16424;50.956;5.320;2024-02-26T00:33:14;7.20;99.90
29453;DHT22;16424;50.956;5.320;2024-02-26T00:35:39;7.20;99.90
29453;DHT22;16424;50.956;5.320;2024-02-26T00:38:05;7.30;99.90
29453;DHT22;16424;50.956;5.320;2024-02-26T00:40:31;7.30;99.90
29453;DHT22;16424;50.956;5.320;2024-02-26T00:42:57;7.30;99.90
29453;DHT22;16424;50.956;5.320;2024-02-26T00:45:24;7.30;99.90
29453;DHT22;16424;50.956;5.320;2024-02-26T00:47:50;7.20;99.90
29453;DHT22;16424;50.956;5.320;2024-02-26T00:50:16;7.10;99.90
29453;DHT22;16424;50.956;5.320;2024-02-26T00:52:42;7.10;99.90
29453;DHT22;16424;50.956;5.320;2024-02-26T00:55:07;7.20;99.90
29453;DHT22;16424;50.956;5.320;2024-02-26T00:57:33;7.10;99.90
29453;DHT22;16424;50.956;5.320;2024-02-26T00:59:59;7.00;99.90
29453;DHT22;16424;50.956;5.320;2024-02-26T01:02:26;6.90;99.90
29453;DHT22;16424;50.956;5.320;2024-02-26T01:04:52;6.90;99.90
29453;DHT22;16424;50.956;5.320;2024-02-26T01:07:18;6.90;99.90
29453;DHT22;16424;50.956;5.320;2024-02-26T01:09:44;6.90;99.90
29453;DHT22;16424;50.956;5.320;2024-02-26T01:12:09;7.00;99.90
29453;DHT22;16424;50.956;5.320;2024-02-26T01:14:35;7.00;99.90
29453;DHT22;16424;50.956;5.320;2024-02-26T01:17:01;7.00;99.90
29453;DHT22;16424;50.956;5.320;2024-02-26T01:19:26;7.00;99.90
29453;DHT22;16424;50.956;5.320;2024-02-26T01:21:53;7.00;99.90
29453;DHT22;16424;50.956;5.320;2024-02-26T01:24:18;7.00;99.90
29453;DHT22;16424;50.956;5.320;2024-02-26T01:26:44;6.90;99.90
29453;DHT22;16424;50.956;5.320;2024-02-26T01:29:10;6.90;99.90
29453;DHT22;16424;50.956;5.320;2024-02-26T01:31:35;7.00;99.90
29453;DHT22;16424;50.956;5.320;2024-02-26T01:34:01;7.00;99.90
29453;DHT22;16424;50.956;5.320;2024-02-26T01:36:27;7.00;99.90
29453;DHT22;16424;50.956;5.320;2024-02-26T01:38:52;6.90;99.90
29453;DHT22;16424;50.956;5.320;2024-02-26T01:41:18;6.90;99.90
29453;DHT22;16424;50.956;5.320;2024-02-26T01:43:44;6.80;99.90
29453;DHT22;16424;50.956;5.320;2024-02-26T01:46:12;6.70;99.90
29453;DHT22;16424;50.956;5.320;2024-02-26T01:48:46;6.80;99.90
29453;DHT22;16424;50.956;5.320;2024-02-26T01:51:14;6.70;99.90
29453;DHT22;16424;50.956;5.320;2024-02-26T01:53:41;6.80;99.90
29453;DHT22;16424;50.956;5.320;2024-02-26T01:56:07;6.90;99.90
29453;DHT22;16424;50.956;5.320;2024-02-26T01:58:34;6.90;99.90
29453;DHT22;16424;50.956;5.320;2024-02-26T02:01:01;6.80;99.90
29453;DHT22;16424;50.956;5.320;2024-02-26T02:03:28;6.70;99.90
29453;DHT22;16424;50.956;5.320;2024-02-26T02:05:54;6.80;99.90
29453;DHT22;16424;50.956;5.320;2024-02-26T02:08:19;6.80;99.90
29453;DHT22;16424;50.956;5.320;2024-02-26T02:10:45;6.80;99.90
29453;DHT22;16424;50.956;5.320;2024-02-26T02:13:13;6.80;99.90
29453;DHT22;16424;50.956;5.320;2024-02-26T02:15:39;6.80;99.90
29453;DHT22;16424;50.956;5.320;2024-02-26T02:18:05;6.70;99.90
29453;DHT22;16424;50.956;5.320;2024-02-26T02:20:35;6.70;99.90
29453;DHT22;16424;50.956;5.320;2024-02-26T02:23:01;6.70;99.90
29453;DHT22;16424;50.956;5.320;2024-02-26T02:25:27;6.70;99.90
29453;DHT22;16424;50.956;5.320;2024-02-26T02:27:54;6.70;99.90
29453;DHT22;16424;50.956;5.320;2024-02-26T02:30:29;6.70;99.90
29453;DHT22;16424;50.956;5.320;2024-02-26T02:32:55;6.80;99.90
29453;DHT22;16424;50.956;5.320;2024-02-26T02:35:24;6.80;99.90
29453;DHT22;16424;50.956;5.320;2024-02-26T02:37:56;6.90;99.90
29453;DHT22;16424;50.956;5.320;2024-02-26T02:40:21;6.90;99.90
29453;DHT22;16424;50.956;5.320;2024-02-26T02:42:47;6.70;99.90
29453;DHT22;16424;50.956;5.320;2024-02-26T02:45:13;6.70;99.90
29453;DHT22;16424;50.956;5.320;2024-02-26T02:47:38;6.60;99.90
29453;DHT22;16424;50.956;5.320;2024-02-26T02:50:04;6.70;99.90
29453;DHT22;16424;50.956;5.320;2024-02-26T02:52:30;6.70;99.90
29453;DHT22;16424;50.956;5.320;2024-02-26T02:54:56;6.70;99.90
29453;DHT22;16424;50.956;5.320;2024-02-26T02:57:22;6.70;99.90
29453;DHT22;16424;50.956;5.320;2024-02-26T02:59:47;6.60;99.90
29453;DHT22;16424;50.956;5.320;2024-02-26T03:02:13;6.50;99.90
29453;DHT22;16424;50.956;5.320;2024-02-26T03:04:39;6.50;99.90
29453;DHT22;16424;50.956;5.320;2024-02-26T03:07:05;6.60;99.90
29453;DHT22;16424;50.956;5.320;2024-02-26T03:09:30;6.50;99.90
29453;DHT22;16424;50.956;5.320;2024-02-26T03:11:56;6.60;99.90
29453;DHT22;16424;50.956;5.320;2024-02-26T03:14:22;6.60;99.90
29453;DHT22;16424;50.956;5.320;2024-02-26T03:16:48;6.50;99.90
29453;DHT22;16424;50.956;5.320;2024-02-26T03:19:16;6.60;99.90
29453;DHT22;16424;50.956;5.320;2024-02-26T03:21:42;6.70;99.90
29453;DHT22;16424;50.956;5.320;2024-02-26T03:24:08;6.70;99.90
29453;DHT22;16424;50.956;5.320;2024-02-26T03:26:36;6.60;99.90
29453;DHT22;16424;50.956;5.320;2024-02-26T03:29:02;6.60;99.90
29453;DHT22;16424;50.956;5.320;2024-02-26T03:31:28;6.50;99.90
29453;DHT22;16424;50.956;5.320;2024-02-26T03:33:54;6.40;99.90
29453;DHT22;16424;50.956;5.320;2024-02-26T03:36:19;6.50;99.90
29453;DHT22;16424;50.956;5.320;2024-02-26T03:38:47;6.60;99.90
29453;DHT22;16424;50.956;5.320;2024-02-26T03:41:12;6.50;99.90
29453;DHT22;16424;50.956;5.320;2024-02-26T03:43:38;6.50;99.90
29453;DHT22;16424;50.956;5.320;2024-02-26T03:46:04;6.40;99.90
29453;DHT22;16424;50.956;5.320;2024-02-26T03:48:32;6.40;99.90
29453;DHT22;16424;50.956;5.320;2024-02-26T03:50:58;6.50;99.90
29453;DHT22;16424;50.956;5.320;2024-02-26T03:53:23;6.50;99.90
29453;DHT22;16424;50.956;5.320;2024-02-26T03:55:49;6.60;99.90
29453;DHT22;16424;50.956;5.320;2024-02-26T03:58:17;6.60;99.90
29453;DHT22;16424;50.956;5.320;2024-02-26T04:00:43;6.50;99.90
29453;DHT22;16424;50.956;5.320;2024-02-26T04:03:09;6.50;99.90
29453;DHT22;16424;50.956;5.320;2024-02-26T04:05:34;6.60;99.90
29453;DHT22;16424;50.956;5.320;2024-02-26T04:08:00;6.60;99.90
29453;DHT22;16424;50.956;5.320;2024-02-26T04:10:37;6.50;99.90
29453;DHT22;16424;50.956;5.320;2024-02-26T04:13:07;6.60;99.90
29453;DHT22;16424;50.956;5.320;2024-02-26T04:15:33;6.60;99.90
29453;DHT22;16424;50.956;5.320;2024-02-26T04:17:59;6.70;99.90
29453;DHT22;16424;50.956;5.320;2024-02-26T04:20:28;6.60;99.90
29453;DHT22;16424;50.956;5.320;2024-02-26T04:22:53;6.60;99.90
29453;DHT22;16424;50.956;5.320;2024-02-26T04:25:19;6.60;99.90
29453;DHT22;16424;50.956;5.320;2024-02-26T04:27:45;6.50;99.90
29453;DHT22;16424;50.956;5.320;2024-02-26T04:30:11;6.60;99.90
29453;DHT22;16424;50.956;5.320;2024-02-26T04:32:36;6.60;99.90
29453;DHT22;16424;50.956;5.320;2024-02-26T04:35:03;6.60;99.90
29453;DHT22;16424;50.956;5.320;2024-02-26T04:37:28;6.60;99.90
29453;DHT22;16424;50.956;5.320;2024-02-26T04:40:01;6.60;99.90
29453;DHT22;16424;50.956;5.320;2024-02-26T04:42:27;6.70;99.90
29453;DHT22;16424;50.956;5.320;2024-02-26T04:44:54;6.60;99.90
29453;DHT22;16424;50.956;5.320;2024-02-26T04:47:19;6.50;99.90
29453;DHT22;16424;50.956;5.320;2024-02-26T04:49:50;6.50;99.90
29453;DHT22;16424;50.956;5.320;2024-02-26T04:52:16;6.60;99.90
29453;DHT22;16424;50.956;5.320;2024-02-26T04:54:41;6.50;99.90
29453;DHT22;16424;50.956;5.320;2024-02-26T04:57:07;6.50;99.90
29453;DHT22;16424;50.956;5.320;2024-02-26T04:59:33;6.50;99.90
29453;DHT22;16424;50.956;5.320;2024-02-26T05:01:58;6.50;99.90
29453;DHT22;16424;50.956;5.320;2024-02-26T05:04:24;6.60;99.90
29453;DHT22;16424;50.956;5.320;2024-02-26T05:06:50;6.60;99.90
29453;DHT22;16424;50.956;5.320;2024-02-26T05:09:15;6.60;99.90
29453;DHT22;16424;50.956;5.320;2024-02-26T05:11:41;6.60;99.90
29453;DHT22;16424;50.956;5.320;2024-02-26T05:14:08;6.50;99.90
29453;DHT22;16424;50.956;5.320;2024-02-26T05:16:33;6.50;99.90
29453;DHT22;16424;50.956;5.320;2024-02-26T05:18:59;6.50;99.90
29453;DHT22;16424;50.956;5.320;2024-02-26T05:21:25;6.50;99.90
29453;DHT22;16424;50.956;5.320;2024-02-26T05:23:50;6.60;99.90
29453;DHT22;16424;50.956;5.320;2024-02-26T05:26:22;6.50;99.90
29453;DHT22;16424;50.956;5.320;2024-02-26T05:28:49;6.50;99.90
29453;DHT22;16424;50.956;5.320;2024-02-26T05:31:16;6.50;99.90
29453;DHT22;16424;50.956;5.320;2024-02-26T05:33:42;6.60;99.90
29453;DHT22;16424;50.956;5.320;2024-02-26T05:36:07;6.60;99.90
29453;DHT22;16424;50.956;5.320;2024-02-26T05:38:33;6.50;99.90
29453;DHT22;16424;50.956;5.320;2024-02-26T05:40:59;6.50;99.90
29453;DHT22;16424;50.956;5.320;2024-02-26T05:43:26;6.50;99.90
29453;DHT22;16424;50.956;5.320;2024-02-26T05:45:51;6.50;99.90
29453;DHT22;16424;50.956;5.320;2024-02-26T05:48:17;6.40;99.90
29453;DHT22;16424;50.956;5.320;2024-02-26T05:50:47;6.50;99.90
29453;DHT22;16424;50.956;5.320;2024-02-26T05:53:13;6.40;99.90
29453;DHT22;16424;50.956;5.320;2024-02-26T05:55:38;6.40;99.90
29453;DHT22;16424;50.956;5.320;2024-02-26T05:58:04;6.40;99.90
29453;DHT22;16424;50.956;5.320;2024-02-26T06:00:30;6.40;99.90
29453;DHT22;16424;50.956;5.320;2024-02-26T06:02:56;6.40;99.90
29453;DHT22;16424;50.956;5.320;2024-02-26T06:05:22;6.50;99.90
29453;DHT22;16424;50.956;5.320;2024-02-26T06:07:47;6.40;99.90
29453;DHT22;16424;50.956;5.320;2024-02-26T06:10:13;6.40;99.90
29453;DHT22;16424;50.956;5.320;2024-02-26T06:12:39;6.40;99.90
29453;DHT22;16424;50.956;5.320;2024-02-26T06:15:06;6.40;99.90
29453;DHT22;16424;50.956;5.320;2024-02-26T06:17:31;6.40;99.90
29453;DHT22;16424;50.956;5.320;2024-02-26T06:19:57;6.30;99.90
29453;DHT22;16424;50.956;5.320;2024-02-26T06:22:24;6.30;99.90
29453;DHT22;16424;50.956;5.320;2024-02-26T06:24:50;6.30;99.90
29453;DHT22;16424;50.956;5.320;2024-02-26T06:27:16;6.30;99.90
29453;DHT22;16424;50.956;5.320;2024-02-26T06:29:42;6.30;99.90
29453;DHT22;16424;50.956;5.320;2024-02-26T06:32:07;6.20;99.90
29453;DHT22;16424;50.956;5.320;2024-02-26T06:34:33;6.30;99.90
29453;DHT22;16424;50.956;5.320;2024-02-26T06:36:58;6.30;99.90
29453;DHT22;16424;50.956;5.320;2024-02-26T06:39:24;6.30;99.90
29453;DHT22;16424;50.956;5.320;2024-02-26T06:41:49;6.40;99.90
29453;DHT22;16424;50.956;5.320;2024-02-26T06:44:15;6.40;99.90
29453;DHT22;16424;50.956;5.320;2024-02-26T06:46:41;6.30;99.90
29453;DHT22;16424;50.956;5.320;2024-02-26T06:49:09;6.20;99.90
29453;DHT22;16424;50.956;5.320;2024-02-26T06:51:35;6.30;99.90
29453;DHT22;16424;50.956;5.320;2024-02-26T06:54:00;6.20;99.90
29453;DHT22;16424;50.956;5.320;2024-02-26T06:56:26;6.20;99.90
29453;DHT22;16424;50.956;5.320;2024-02-26T06:58:51;6.30;99.90
29453;DHT22;16424;50.956;5.320;2024-02-26T07:01:18;6.30;99.90
29453;DHT22;16424;50.956;5.320;2024-02-26T07:03:43;6.20;99.90
29453;DHT22;16424;50.956;5.320;2024-02-26T07:06:09;6.40;99.90
29453;DHT22;16424;50.956;5.320;2024-02-26T07:08:35;6.40;99.90
29453;DHT22;16424;50.956;5.320;2024-02-26T07:11:00;6.30;99.90
29453;DHT22;16424;50.956;5.320;2024-02-26T07:13:26;6.40;99.90
29453;DHT22;16424;50.956;5.320;2024-02-26T07:15:51;6.30;99.90
29453;DHT22;16424;50.956;5.320;2024-02-26T07:18:17;6.40;99.90
29453;DHT22;16424;50.956;5.320;2024-02-26T07:20:43;6.30;99.90
29453;DHT22;16424;50.956;5.320;2024-02-26T07:23:08;6.30;99.90
29453;DHT22;16424;50.956;5.320;2024-02-26T07:25:34;6.30;99.90
29453;DHT22;16424;50.956;5.320;2024-02-26T07:27:59;6.30;99.90
29453;DHT22;16424;50.956;5.320;2024-02-26T07:30:25;6.30;99.90
29453;DHT22;16424;50.956;5.320;2024-02-26T07:32:51;6.30;99.90
29453;DHT22;16424;50.956;5.320;2024-02-26T07:35:16;6.30;99.90
29453;DHT22;16424;50.956;5.320;2024-02-26T07:37:43;6.20;99.90
29453;DHT22;16424;50.956;5.320;2024-02-26T07:40:09;6.30;99.90
29453;DHT22;16424;50.956;5.320;2024-02-26T07:42:34;6.30;99.90
29453;DHT22;16424;50.956;5.320;2024-02-26T07:45:00;6.20;99.90
29453;DHT22;16424;50.956;5.320;2024-02-26T07:47:26;6.20;99.90
29453;DHT22;16424;50.956;5.320;2024-02-26T07:49:51;6.40;99.90
29453;DHT22;16424;50.956;5.320;2024-02-26T07:52:17;6.30;99.90
29453;DHT22;16424;50.956;5.320;2024-02-26T07:54:43;6.40;99.90
29453;DHT22;16424;50.956;5.320;2024-02-26T07:57:08;6.30;99.90
29453;DHT22;16424;50.956;5.320;2024-02-26T07:59:34;6.30;99.90
29453;DHT22;16424;50.956;5.320;2024-02-26T08:01:59;6.30;99.90
29453;DHT22;16424;50.956;5.320;2024-02-26T08:04:28;6.30;99.90
29453;DHT22;16424;50.956;5.320;2024-02-26T08:06:54;6.30;99.90
29453;DHT22;16424;50.956;5.320;2024-02-26T08:09:20;6.30;99.90
29453;DHT22;16424;50.956;5.320;2024-02-26T08:11:45;6.20;99.90
29453;DHT22;16424;50.956;5.320;2024-02-26T08:14:11;6.20;99.90
29453;DHT22;16424;50.956;5.320;2024-02-26T08:16:37;6.30;99.90
29453;DHT22;16424;50.956;5.320;2024-02-26T08:19:02;6.40;99.90
29453;DHT22;16424;50.956;5.320;2024-02-26T08:21:28;6.40;99.90
29453;DHT22;16424;50.956;5.320;2024-02-26T08:23:54;6.40;99.90
29453;DHT22;16424;50.956;5.320;2024-02-26T08:26:20;6.40;99.90
29453;DHT22;16424;50.956;5.320;2024-02-26T08:28:48;6.40;99.90
29453;DHT22;16424;50.956;5.320;2024-02-26T08:31:14;6.40;99.90
29453;DHT22;16424;50.956;5.320;2024-02-26T08:33:40;6.40;99.90
29453;DHT22;16424;50.956;5.320;2024-02-26T08:36:06;6.40;99.90
29453;DHT22;16424;50.956;5.320;2024-02-26T08:38:32;6.40;99.90
29453;DHT22;16424;50.956;5.320;2024-02-26T08:41:00;6.30;99.90
29453;DHT22;16424;50.956;5.320;2024-02-26T08:43:26;6.50;99.90
29453;DHT22;16424;50.956;5.320;2024-02-26T08:45:52;6.40;99.90
29453;DHT22;16424;50.956;5.320;2024-02-26T08:48:18;6.40;99.90
29453;DHT22;16424;50.956;5.320;2024-02-26T08:50:43;6.30;99.90
29453;DHT22;16424;50.956;5.320;2024-02-26T08:53:09;6.30;99.90
29453;DHT22;16424;50.956;5.320;2024-02-26T08:55:35;6.40;99.90
29453;DHT22;16424;50.956;5.320;2024-02-26T08:58:00;6.30;99.90
29453;DHT22;16424;50.956;5.320;2024-02-26T09:00:26;6.30;99.90
29453;DHT22;16424;50.956;5.320;2024-02-26T09:02:52;6.30;99.90
29453;DHT22;16424;50.956;5.320;2024-02-26T09:05:17;6.30;99.90
29453;DHT22;16424;50.956;5.320;2024-02-26T09:07:43;6.30;99.90
29453;DHT22;16424;50.956;5.320;2024-02-26T09:10:09;6.30;99.90
29453;DHT22;16424;50.956;5.320;2024-02-26T09:12:39;6.30;99.90
29453;DHT22;16424;50.956;5.320;2024-02-26T09:15:06;6.20;99.90
29453;DHT22;16424;50.956;5.320;2024-02-26T09:17:33;6.30;99.90
29453;DHT22;16424;50.956;5.320;2024-02-26T09:19:58;6.30;99.90
29453;DHT22;16424;50.956;5.320;2024-02-26T09:22:24;6.30;99.90
29453;DHT22;16424;50.956;5.320;2024-02-26T09:24:50;6.40;99.90
29453;DHT22;16424;50.956;5.320;2024-02-26T09:27:16;6.40;99.90
29453;DHT22;16424;50.956;5.320;2024-02-26T09:29:42;6.40;99.90
29453;DHT22;16424;50.956;5.320;2024-02-26T09:32:08;6.40;99.90
29453;DHT22;16424;50.956;5.320;2024-02-26T09:34:34;6.40;99.90
29453;DHT22;16424;50.956;5.320;2024-02-26T09:37:00;6.40;99.90
29453;DHT22;16424;50.956;5.320;2024-02-26T09:39:26;6.50;99.90
29453;DHT22;16424;50.956;5.320;2024-02-26T09:41:53;6.50;99.90
29453;DHT22;16424;50.956;5.320;2024-02-26T09:44:21;6.50;99.90
29453;DHT22;16424;50.956;5.320;2024-02-26T09:46:50;6.50;99.90
29453;DHT22;16424;50.956;5.320;2024-02-26T09:49:19;6.50;99.90
29453;DHT22;16424;50.956;5.320;2024-02-26T09:51:47;6.50;99.90
29453;DHT22;16424;50.956;5.320;2024-02-26T09:54:15;6.40;99.90
29453;DHT22;16424;50.956;5.320;2024-02-26T09:56:42;6.50;99.90
29453;DHT22;16424;50.956;5.320;2024-02-26T09:59:15;6.50;99.90
29453;DHT22;16424;50.956;5.320;2024-02-26T10:01:42;6.50;99.90
29453;DHT22;16424;50.956;5.320;2024-02-26T10:04:10;6.40;99.90
29453;DHT22;16424;50.956;5.320;2024-02-26T10:06:37;6.50;99.90
29453;DHT22;16424;50.956;5.320;2024-02-26T10:09:03;6.60;99.90
29453;DHT22;16424;50.956;5.320;2024-02-26T10:11:32;6.60;99.90
29453;DHT22;16424;50.956;5.320;2024-02-26T10:13:58;6.60;99.90
29453;DHT22;16424;50.956;5.320;2024-02-26T10:16:25;6.60;99.90
29453;DHT22;16424;50.956;5.320;2024-02-26T10:18:53;6.60;99.90
29453;DHT22;16424;50.956;5.320;2024-02-26T10:21:20;6.60;99.90
29453;DHT22;16424;50.956;5.320;2024-02-26T10:23:47;6.60;99.90
29453;DHT22;16424;50.956;5.320;2024-02-26T10:26:14;6.60;99.90
29453;DHT22;16424;50.956;5.320;2024-02-26T10:28:43;6.70;99.90
29453;DHT22;16424;50.956;5.320;2024-02-26T10:31:09;6.70;99.90
29453;DHT22;16424;50.956;5.320;2024-02-26T10:33:36;6.70;99.90
29453;DHT22;16424;50.956;5.320;2024-02-26T10:36:06;6.70;99.90
29453;DHT22;16424;50.956;5.320;2024-02-26T10:38:34;6.70;99.90
29453;DHT22;16424;50.956;5.320;2024-02-26T10:41:01;6.60;99.90
29453;DHT22;16424;50.956;5.320;2024-02-26T10:43:26;6.60;99.90
29453;DHT22;16424;50.956;5.320;2024-02-26T10:45:54;6.70;99.90
29453;DHT22;16424;50.956;5.320;2024-02-26T10:48:20;6.70;99.90
29453;DHT22;16424;50.956;5.320;2024-02-26T10:50:46;6.70;99.90
29453;DHT22;16424;50.956;5.320;2024-02-26T10:53:17;6.80;99.90
29453;DHT22;16424;50.956;5.320;2024-02-26T10:55:49;6.80;99.90
29453;DHT22;16424;50.956;5.320;2024-02-26T10:58:16;6.70;99.90
29453;DHT22;16424;50.956;5.320;2024-02-26T11:00:43;6.80;99.90
29453;DHT22;16424;50.956;5.320;2024-02-26T11:03:09;6.70;99.90
29453;DHT22;16424;50.956;5.320;2024-02-26T11:05:37;6.70;99.90
29453;DHT22;16424;50.956;5.320;2024-02-26T11:08:05;6.70;99.90
29453;DHT22;16424;50.956;5.320;2024-02-26T11:10:31;6.70;99.90
29453;DHT22;16424;50.956;5.320;2024-02-26T11:12:59;6.60;99.90
29453;DHT22;16424;50.956;5.320;2024-02-26T11:15:27;6.60;99.90
29453;DHT22;16424;50.956;5.320;2024-02-26T11:17:55;6.60;99.90
29453;DHT22;16424;50.956;5.320;2024-02-26T11:20:21;6.60;99.90
29453;DHT22;16424;50.956;5.320;2024-02-26T11:22:48;6.60;99.90
29453;DHT22;16424;50.956;5.320;2024-02-26T11:25:13;6.50;99.90
29453;DHT22;16424;50.956;5.320;2024-02-26T11:27:49;6.40;99.90
29453;DHT22;16424;50.956;5.320;2024-02-26T11:30:17;6.50;99.90
29453;DHT22;16424;50.956;5.320;2024-02-26T11:32:45;6.40;99.90
29453;DHT22;16424;50.956;5.320;2024-02-26T11:35:11;6.40;99.90
29453;DHT22;16424;50.956;5.320;2024-02-26T11:37:41;6.50;99.90
29453;DHT22;16424;50.956;5.320;2024-02-26T11:40:11;6.40;99.90
29453;DHT22;16424;50.956;5.320;2024-02-26T11:42:44;6.50;99.90
29453;DHT22;16424;50.956;5.320;2024-02-26T11:48:16;6.50;99.90
29453;DHT22;16424;50.956;5.320;2024-02-26T11:50:46;6.60;99.90
29453;DHT22;16424;50.956;5.320;2024-02-26T11:53:23;6.60;99.90
29453;DHT22;16424;50.956;5.320;2024-02-26T11:58:43;6.60;99.90
29453;DHT22;16424;50.956;5.320;2024-02-26T12:01:38;6.60;99.90
29453;DHT22;16424;50.956;5.320;2024-02-26T12:04:05;6.60;99.90
29453;DHT22;16424;50.956;5.320;2024-02-26T12:06:43;6.60;99.90
29453;DHT22;16424;50.956;5.320;2024-02-26T12:09:09;6.50;99.90
29453;DHT22;16424;50.956;5.320;2024-02-26T12:11:38;6.60;99.90
29453;DHT22;16424;50.956;5.320;2024-02-26T12:14:07;6.50;99.90
29453;DHT22;16424;50.956;5.320;2024-02-26T12:16:39;6.60;99.90
29453;DHT22;16424;50.956;5.320;2024-02-26T12:19:06;6.60;99.90
29453;DHT22;16424;50.956;5.320;2024-02-26T12:21:36;6.70;99.90
29453;DHT22;16424;50.956;5.320;2024-02-26T12:24:13;6.60;99.90
29453;DHT22;16424;50.956;5.320;2024-02-26T12:26:39;6.60;99.90
29453;DHT22;16424;50.956;5.320;2024-02-26T12:29:06;6.60;99.90
29453;DHT22;16424;50.956;5.320;2024-02-26T12:31:35;6.50;99.90
29453;DHT22;16424;50.956;5.320;2024-02-26T12:34:03;6.60;99.90
29453;DHT22;16424;50.956;5.320;2024-02-26T12:36:29;6.60;99.90
29453;DHT22;16424;50.956;5.320;2024-02-26T12:38:55;6.60;99.90
29453;DHT22;16424;50.956;5.320;2024-02-26T12:41:21;6.60;99.90
29453;DHT22;16424;50.956;5.320;2024-02-26T12:43:47;6.60;99.90
29453;DHT22;16424;50.956;5.320;2024-02-26T12:46:13;6.80;99.90
29453;DHT22;16424;50.956;5.320;2024-02-26T12:48:43;6.80;99.90
29453;DHT22;16424;50.956;5.320;2024-02-26T12:51:09;6.90;99.90
29453;DHT22;16424;50.956;5.320;2024-02-26T12:53:36;7.10;99.90
29453;DHT22;16424;50.956;5.320;2024-02-26T12:56:03;6.90;99.90
29453;DHT22;16424;50.956;5.320;2024-02-26T12:58:29;6.90;99.90
29453;DHT22;16424;50.956;5.320;2024-02-26T13:00:57;6.90;99.90
29453;DHT22;16424;50.956;5.320;2024-02-26T13:03:23;6.80;99.90
29453;DHT22;16424;50.956;5.320;2024-02-26T13:05:49;6.90;99.90
29453;DHT22;16424;50.956;5.320;2024-02-26T13:08:20;7.00;99.90
29453;DHT22;16424;50.956;5.320;2024-02-26T13:10:46;6.90;99.90
29453;DHT22;16424;50.956;5.320;2024-02-26T13:13:15;6.90;99.90
29453;DHT22;16424;50.956;5.320;2024-02-26T13:15:43;6.90;99.90
29453;DHT22;16424;50.956;5.320;2024-02-26T13:18:10;6.90;99.90
29453;DHT22;16424;50.956;5.320;2024-02-26T13:20:37;7.00;99.90
29453;DHT22;16424;50.956;5.320;2024-02-26T13:23:04;6.90;99.90
29453;DHT22;16424;50.956;5.320;2024-02-26T13:25:31;6.80;99.90
29453;DHT22;16424;50.956;5.320;2024-02-26T13:28:15;6.80;99.90
29453;DHT22;16424;50.956;5.320;2024-02-26T13:30:50;6.80;99.90
29453;DHT22;16424;50.956;5.320;2024-02-26T13:33:16;6.90;99.90
29453;DHT22;16424;50.956;5.320;2024-02-26T13:35:41;6.90;99.90
29453;DHT22;16424;50.956;5.320;2024-02-26T13:38:07;6.80;99.90
29453;DHT22;16424;50.956;5.320;2024-02-26T13:40:33;6.90;99.90
29453;DHT22;16424;50.956;5.320;2024-02-26T13:43:00;6.90;99.90
29453;DHT22;16424;50.956;5.320;2024-02-26T13:45:25;6.80;99.90
29453;DHT22;16424;50.956;5.320;2024-02-26T13:47:51;6.70;99.90
29453;DHT22;16424;50.956;5.320;2024-02-26T13:50:17;6.80;99.90
29453;DHT22;16424;50.956;5.320;2024-02-26T13:52:47;6.80;99.90
29453;DHT22;16424;50.956;5.320;2024-02-26T13:55:12;6.80;99.90
29453;DHT22;16424;50.956;5.320;2024-02-26T13:57:40;6.80;99.90
29453;DHT22;16424;50.956;5.320;2024-02-26T14:00:06;6.70;99.90
29453;DHT22;16424;50.956;5.320;2024-02-26T14:02:33;6.70;99.90
29453;DHT22;16424;50.956;5.320;2024-02-26T14:05:02;6.80;99.90
29453;DHT22;16424;50.956;5.320;2024-02-26T14:07:29;6.80;99.90
29453;DHT22;16424;50.956;5.320;2024-02-26T14:09:57;6.90;99.90
29453;DHT22;16424;50.956;5.320;2024-02-26T14:12:23;6.80;99.90
29453;DHT22;16424;50.956;5.320;2024-02-26T14:14:49;6.80;99.90
29453;DHT22;16424;50.956;5.320;2024-02-26T14:17:15;6.80;99.90
29453;DHT22;16424;50.956;5.320;2024-02-26T14:19:41;6.90;99.90
29453;DHT22;16424;50.956;5.320;2024-02-26T14:22:12;6.90;99.90
29453;DHT22;16424;50.956;5.320;2024-02-26T14:24:38;7.00;99.90
29453;DHT22;16424;50.956;5.320;2024-02-26T14:27:06;7.10;99.90
29453;DHT22;16424;50.956;5.320;2024-02-26T14:29:33;7.10;99.90
29453;DHT22;16424;50.956;5.320;2024-02-26T14:31:58;7.20;99.90
29453;DHT22;16424;50.956;5.320;2024-02-26T14:34:24;7.00;99.90
29453;DHT22;16424;50.956;5.320;2024-02-26T14:36:50;7.00;99.90
29453;DHT22;16424;50.956;5.320;2024-02-26T14:39:15;7.10;99.90
29453;DHT22;16424;50.956;5.320;2024-02-26T14:41:41;7.10;99.90
29453;DHT22;16424;50.956;5.320;2024-02-26T14:44:08;7.10;99.90
29453;DHT22;16424;50.956;5.320;2024-02-26T14:46:34;7.10;99.90
29453;DHT22;16424;50.956;5.320;2024-02-26T14:48:59;7.10;99.90
29453;DHT22;16424;50.956;5.320;2024-02-26T14:51:25;7.10;99.90
29453;DHT22;16424;50.956;5.320;2024-02-26T14:53:50;7.10;99.90
29453;DHT22;16424;50.956;5.320;2024-02-26T14:56:16;7.10;99.90
29453;DHT22;16424;50.956;5.320;2024-02-26T14:58:42;7.10;99.90
29453;DHT22;16424;50.956;5.320;2024-02-26T15:01:07;7.10;99.90
29453;DHT22;16424;50.956;5.320;2024-02-26T15:03:33;7.10;99.90
29453;DHT22;16424;50.956;5.320;2024-02-26T15:05:59;7.20;99.90
29453;DHT22;16424;50.956;5.320;2024-02-26T15:08:24;7.20;99.90
29453;DHT22;16424;50.956;5.320;2024-02-26T15:10:50;7.30;99.90
29453;DHT22;16424;50.956;5.320;2024-02-26T15:13:16;7.30;99.90
29453;DHT22;16424;50.956;5.320;2024-02-26T15:15:43;7.20;99.90
29453;DHT22;16424;50.956;5.320;2024-02-26T15:18:09;7.20;99.90
29453;DHT22;16424;50.956;5.320;2024-02-26T15:20:37;7.20;99.90
29453;DHT22;16424;50.956;5.320;2024-02-26T15:23:05;7.30;99.90
29453;DHT22;16424;50.956;5.320;2024-02-26T15:25:31;7.20;99.90
29453;DHT22;16424;50.956;5.320;2024-02-26T15:27:57;7.20;99.90
29453;DHT22;16424;50.956;5.320;2024-02-26T15:30:23;7.10;99.90
29453;DHT22;16424;50.956;5.320;2024-02-26T15:32:48;7.10;99.90
29453;DHT22;16424;50.956;5.320;2024-02-26T15:35:14;7.10;99.90
29453;DHT22;16424;50.956;5.320;2024-02-26T15:37:40;7.10;99.90
29453;DHT22;16424;50.956;5.320;2024-02-26T15:40:06;7.20;99.90
29453;DHT22;16424;50.956;5.320;2024-02-26T15:42:33;7.20;99.90
29453;DHT22;16424;50.956;5.320;2024-02-26T15:44:58;7.20;99.90
29453;DHT22;16424;50.956;5.320;2024-02-26T15:47:24;7.20;99.90